DTTZ/TOE METAR and TAF weather

Enter ICAO airport designator
Station Type Date Time Source
DTTZ METAR 2018/01/19 17:00 UTC NOAA

DTTZ 191700Z 06009KT 9999 FEW030 16/03 Q1011


Station Type Date Time Source
DTTZ Decoded METAR 2018/01/19 17:00 UTC NOAA

Tozeur, Tunisia (DTTZ) 33-55N 008-06E 93M
Jan 19, 2018 - 12:00 PM EST / 2018.01.19 1700 UTC
Wind: from the ENE (060 degrees) at 10 MPH (9 KT):0
Visibility: greater than 7 mile(s):0
Sky conditions: mostly clear
Temperature: 60 F (16 C)
Dew Point: 37 F (3 C)
Relative Humidity: 41%
Pressure (altimeter): 29.85 in. Hg (1011 hPa)
ob: DTTZ 191700Z 06009KT 9999 FEW030 16/03 Q1011
cycle: 17

Station Type Date Time Source
DTTZ TAF 2018/01/19 18:03 UTC NOAA

TAF DTTZ 191700Z 1918/2018 08013KT 9999 SCT030
BECMG 1923/2001 02020KT PROB30
TEMPO 2004/2009 02030KT SCT030TCU


Example: see airport list